Time,TemperatureF,DewpointF,PressureIn,WindDirection,WindDirectionDegrees,WindSpeedMPH,WindSpeedGustMPH,Humidity,HourlyPrecipIn,Conditions,Clouds,dailyrainin,SoftwareType,DateUTC
2013-11-29 00:01:00,23.9,5.2,29.91,NNW,335,4.5,4.5,44,0.00,,---,0.00,VWS V15.00,2013-11-29 05:01:00,
2013-11-29 00:06:00,24.1,6.8,29.91,NNW,332,0.0,0.0,47,0.00,,---,0.00,VWS V15.00,2013-11-29 05:06:00,
2013-11-29 00:11:00,24.1,5.3,29.91,NNW,329,0.0,0.0,44,0.00,,---,0.00,VWS V15.00,2013-11-29 05:11:00,
2013-11-29 00:16:00,24.3,5.5,29.91,NW,326,0.0,0.0,44,0.00,,---,0.00,VWS V15.00,2013-11-29 05:16:00,
2013-11-29 00:21:00,24.4,7.1,29.91,NNW,342,5.4,5.4,47,0.00,,---,0.00,VWS V15.00,2013-11-29 05:21:00,
2013-11-29 00:26:00,24.4,5.7,29.91,NNW,341,6.3,6.3,44,0.00,,---,0.00,VWS V15.00,2013-11-29 05:26:00,
2013-11-29 00:31:00,24.6,5.8,29.91,NNW,343,5.4,5.4,44,0.00,,---,0.00,VWS V15.00,2013-11-29 05:31:00,
2013-11-29 00:36:00,24.6,5.8,29.91,North,349,5.4,5.4,44,0.00,,---,0.00,VWS V15.00,2013-11-29 05:36:00,
2013-11-29 00:41:00,24.8,6.0,29.91,NNW,340,5.4,7.2,44,0.00,,---,0.00,VWS V15.00,2013-11-29 05:41:00,
2013-11-29 00:46:00,24.8,6.0,29.91,NNW,337,0.0,0.0,44,0.00,,---,0.00,VWS V15.00,2013-11-29 05:46:00,
2013-11-29 00:51:00,24.8,6.0,29.91,NNW,337,0.0,0.0,44,0.00,,---,0.00,VWS V15.00,2013-11-29 05:51:00,
2013-11-29 00:56:00,24.8,6.0,29.91,NNW,331,0.0,0.0,44,0.00,,---,0.00,VWS V15.00,2013-11-29 05:56:00,
2013-11-29 01:01:00,24.8,6.0,29.91,NNW,331,0.0,0.0,44,0.00,,---,0.00,VWS V15.00,2013-11-29 06:01:00,
2013-11-29 01:06:00,24.8,6.0,29.91,NNW,331,0.0,0.0,44,0.00,,---,0.00,VWS V15.00,2013-11-29 06:06:00,
2013-11-29 01:11:00,24.8,7.4,29.91,NNW,331,0.0,0.0,47,0.00,,---,0.00,VWS V15.00,2013-11-29 06:11:00,
2013-11-29 01:16:00,24.8,6.0,29.91,NNW,331,0.0,0.0,44,0.00,,---,0.00,VWS V15.00,2013-11-29 06:16:00,
2013-11-29 01:21:00,24.8,6.0,29.91,NNW,331,0.0,0.0,44,0.00,,---,0.00,VWS V15.00,2013-11-29 06:21:00,
2013-11-29 01:26:00,24.8,6.0,29.91,NNW,330,0.0,0.0,44,0.00,,---,0.00,VWS V15.00,2013-11-29 06:26:00,
2013-11-29 01:31:00,24.8,7.4,29.91,NNW,330,0.0,0.0,47,0.00,,---,0.00,VWS V15.00,2013-11-29 06:31:00,
2013-11-29 01:36:00,24.8,7.4,29.91,NNW,330,0.0,0.0,47,0.00,,---,0.00,VWS V15.00,2013-11-29 06:36:00,
2013-11-29 01:41:00,24.8,7.4,29.91,NNW,330,0.0,0.0,47,0.00,,---,0.00,VWS V15.00,2013-11-29 06:41:00,
2013-11-29 01:46:00,24.8,7.4,29.91,NNW,330,0.0,0.0,47,0.00,,---,0.00,VWS V15.00,2013-11-29 06:46:00,
2013-11-29 01:51:00,24.8,7.4,29.91,NNW,330,0.0,0.0,47,0.00,,---,0.00,VWS V15.00,2013-11-29 06:51:00,
2013-11-29 01:56:00,24.8,7.4,29.91,NNW,330,0.0,0.0,47,0.00,,---,0.00,VWS V15.00,2013-11-29 06:56:00,
2013-11-29 02:01:00,24.8,7.4,29.91,NNW,330,0.0,0.0,47,0.00,,---,0.00,VWS V15.00,2013-11-29 07:01:00,
2013-11-29 02:06:00,24.8,7.4,29.91,NNW,330,0.0,0.0,47,0.00,,---,0.00,VWS V15.00,2013-11-29 07:06:00,
2013-11-29 02:11:00,24.8,7.4,29.91,NNW,330,0.0,0.0,47,0.00,,---,0.00,VWS V15.00,2013-11-29 07:11:00,
2013-11-29 02:16:00,24.8,7.4,29.91,NNW,330,0.0,0.0,47,0.00,,---,0.00,VWS V15.00,2013-11-29 07:16:00,
2013-11-29 02:21:00,24.8,7.4,29.91,NNW,330,0.0,0.0,47,0.00,,---,0.00,VWS V15.00,2013-11-29 07:21:00,
2013-11-29 02:26:00,24.8,7.4,29.91,NNW,330,0.0,0.0,47,0.00,,---,0.00,VWS V15.00,2013-11-29 07:26:00,
2013-11-29 02:31:00,24.8,7.4,29.91,NNW,330,0.0,0.0,47,0.00,,---,0.00,VWS V15.00,2013-11-29 07:31:00,
2013-11-29 02:36:00,24.8,7.4,29.91,NNW,330,0.0,0.0,47,0.00,,---,0.00,VWS V15.00,2013-11-29 07:36:00,
2013-11-29 02:41:00,24.8,7.4,29.91,NNW,330,0.0,0.0,47,0.00,,---,0.00,VWS V15.00,2013-11-29 07:41:00,
2013-11-29 02:46:00,24.8,6.0,29.91,NNW,330,0.0,0.0,44,0.00,,---,0.00,VWS V15.00,2013-11-29 07:46:00,
2013-11-29 02:51:00,25.0,6.2,29.91,NNW,330,0.0,0.0,44,0.00,,---,0.00,VWS V15.00,2013-11-29 07:51:00,
2013-11-29 02:56:00,25.0,6.2,29.91,NNW,330,0.0,0.0,44,0.00,,---,0.00,VWS V15.00,2013-11-29 07:56:00,
2013-11-29 03:01:00,25.0,6.2,29.91,NNW,330,0.0,0.0,44,0.00,,---,0.00,VWS V15.00,2013-11-29 08:01:00,
2013-11-29 03:06:00,25.0,6.2,29.91,NNW,330,0.0,0.0,44,0.00,,---,0.00,VWS V15.00,2013-11-29 08:06:00,
2013-11-29 03:11:00,25.0,6.2,29.91,NNW,330,0.0,0.0,44,0.00,,---,0.00,VWS V15.00,2013-11-29 08:11:00,
2013-11-29 03:16:00,25.0,6.2,29.91,NNW,330,0.0,0.0,44,0.00,,---,0.00,VWS V15.00,2013-11-29 08:16:00,
2013-11-29 03:21:00,25.0,6.2,29.91,NNW,330,0.0,0.0,44,0.00,,---,0.00,VWS V15.00,2013-11-29 08:21:00,
2013-11-29 03:26:00,25.0,6.2,29.91,NNW,330,0.0,0.0,44,0.00,,---,0.00,VWS V15.00,2013-11-29 08:26:00,
2013-11-29 03:31:00,25.2,6.3,29.91,NNW,330,0.0,0.0,44,0.00,,---,0.00,VWS V15.00,2013-11-29 08:31:00,
2013-11-29 03:36:00,25.2,6.3,29.91,NNW,330,0.0,0.0,44,0.00,,---,0.00,VWS V15.00,2013-11-29 08:36:00,
2013-11-29 03:41:00,25.2,6.3,29.91,NNW,330,0.0,0.0,44,0.00,,---,0.00,VWS V15.00,2013-11-29 08:41:00,
2013-11-29 03:46:00,25.3,6.5,29.91,NNW,330,0.0,0.0,44,0.00,,---,0.00,VWS V15.00,2013-11-29 08:46:00,
2013-11-29 03:51:00,25.3,6.5,29.91,NNW,330,0.0,0.0,44,0.00,,---,0.00,VWS V15.00,2013-11-29 08:51:00,
2013-11-29 03:56:00,25.3,6.5,29.91,NNW,330,0.0,0.0,44,0.00,,---,0.00,VWS V15.00,2013-11-29 08:56:00,
2013-11-29 04:01:00,25.3,6.5,29.91,NNW,330,0.0,0.0,44,0.00,,---,0.00,VWS V15.00,2013-11-29 09:01:00,
2013-11-29 04:06:00,25.3,6.5,29.91,NNW,330,0.0,0.0,44,0.00,,---,0.00,VWS V15.00,2013-11-29 09:06:00,
2013-11-29 04:11:00,25.3,6.5,29.91,NNW,330,0.0,0.0,44,0.00,,---,0.00,VWS V15.00,2013-11-29 09:11:00,
2013-11-29 04:16:00,25.3,6.5,29.91,NNW,330,0.0,0.0,44,0.00,,---,0.00,VWS V15.00,2013-11-29 09:16:00,
2013-11-29 04:21:00,25.3,6.5,29.91,NNW,330,0.0,0.0,44,0.00,,---,0.00,VWS V15.00,2013-11-29 09:21:00,
2013-11-29 04:26:00,25.3,6.5,29.91,NNW,330,0.0,0.0,44,0.00,,---,0.00,VWS V15.00,2013-11-29 09:26:00,
2013-11-29 04:31:00,25.3,6.5,29.91,NNW,330,0.0,0.0,44,0.00,,---,0.00,VWS V15.00,2013-11-29 09:31:00,
2013-11-29 04:36:00,25.2,6.3,29.91,NNW,330,0.0,0.0,44,0.00,,---,0.00,VWS V15.00,2013-11-29 09:36:00,
2013-11-29 04:41:00,25.2,6.3,29.91,NNW,330,0.0,0.0,44,0.00,,---,0.00,VWS V15.00,2013-11-29 09:41:00,
2013-11-29 04:46:00,25.2,6.3,29.91,NNW,330,0.0,0.0,44,0.00,,---,0.00,VWS V15.00,2013-11-29 09:46:00,
2013-11-29 04:51:00,25.2,6.3,29.91,NNW,330,0.0,0.0,44,0.00,,---,0.00,VWS V15.00,2013-11-29 09:51:00,
2013-11-29 04:56:00,25.2,6.3,29.91,NNW,330,0.0,0.0,44,0.00,,---,0.00,VWS V15.00,2013-11-29 09:56:00,
2013-11-29 05:01:00,25.2,6.3,29.91,NNW,330,0.0,0.0,44,0.00,,---,0.00,VWS V15.00,2013-11-29 10:01:00,
2013-11-29 05:06:00,25.2,6.3,29.91,NNW,330,0.0,0.0,44,0.00,,---,0.00,VWS V15.00,2013-11-29 10:06:00,
2013-11-29 05:11:00,25.2,6.3,29.91,NNW,330,0.0,0.0,44,0.00,,---,0.00,VWS V15.00,2013-11-29 10:11:00,
2013-11-29 05:16:00,25.2,6.3,29.94,NNW,330,0.0,0.0,44,0.00,,---,0.00,VWS V15.00,2013-11-29 10:16:00,
2013-11-29 05:21:00,25.3,6.5,29.94,NNW,330,0.0,0.0,44,0.00,,---,0.00,VWS V15.00,2013-11-29 10:21:00,
2013-11-29 05:26:00,25.3,6.5,29.94,NNW,330,0.0,0.0,44,0.00,,---,0.00,VWS V15.00,2013-11-29 10:26:00,
2013-11-29 05:31:00,25.3,6.5,29.94,NNW,331,0.0,0.0,44,0.00,,---,0.00,VWS V15.00,2013-11-29 10:31:00,
2013-11-29 05:36:00,25.3,6.5,29.94,NNW,331,0.0,0.0,44,0.00,,---,0.00,VWS V15.00,2013-11-29 10:36:00,
2013-11-29 05:41:00,25.3,6.5,29.94,NNW,331,0.0,0.0,44,0.00,,---,0.00,VWS V15.00,2013-11-29 10:41:00,
2013-11-29 05:46:00,25.3,6.5,29.94,NNW,331,0.0,0.0,44,0.00,,---,0.00,VWS V15.00,2013-11-29 10:46:00,
2013-11-29 05:51:00,25.2,6.3,29.94,NNW,331,0.0,0.0,44,0.00,,---,0.00,VWS V15.00,2013-11-29 10:51:00,
2013-11-29 05:56:00,25.2,6.3,29.94,NNW,331,0.0,0.0,44,0.00,,---,0.00,VWS V15.00,2013-11-29 10:56:00,
2013-11-29 06:00:00,25.2,6.3,29.94,NNW,331,0.0,0.0,44,0.00,,---,0.00,VWS V15.00,2013-11-29 11:00:00,
2013-11-29 06:05:00,25.0,6.2,29.94,NNW,331,0.0,0.0,44,0.00,,---,0.00,VWS V15.00,2013-11-29 11:05:00,
2013-11-29 06:11:00,25.0,7.1,29.94,NNW,331,0.0,0.0,46,0.00,,---,0.00,VWS V15.00,2013-11-29 11:11:00,
2013-11-29 06:16:00,25.0,7.1,29.94,NNW,331,0.0,0.0,46,0.00,,---,0.00,VWS V15.00,2013-11-29 11:16:00,
2013-11-29 06:21:00,25.0,7.1,29.94,NNW,331,0.0,0.0,46,0.00,,---,0.00,VWS V15.00,2013-11-29 11:21:00,
2013-11-29 06:25:00,25.0,7.1,29.94,NNW,331,0.0,0.0,46,0.00,,---,0.00,VWS V15.00,2013-11-29 11:25:00,
2013-11-29 06:30:00,25.0,7.1,29.97,NNW,334,0.0,0.0,46,0.00,,---,0.00,VWS V15.00,2013-11-29 11:30:00,
2013-11-29 06:35:00,25.0,7.1,29.97,NNW,334,0.0,0.0,46,0.00,,---,0.00,VWS V15.00,2013-11-29 11:35:00,
2013-11-29 06:40:00,25.0,7.1,29.97,NNW,334,0.0,0.0,46,0.00,,---,0.00,VWS V15.00,2013-11-29 11:40:00,
2013-11-29 06:45:00,25.0,7.1,29.97,NNW,334,0.0,0.0,46,0.00,,---,0.00,VWS V15.00,2013-11-29 11:45:00,
2013-11-29 06:50:00,25.0,7.1,29.97,NNW,335,0.0,0.0,46,0.00,,---,0.00,VWS V15.00,2013-11-29 11:50:00,
2013-11-29 06:55:00,25.0,7.1,29.97,NNW,335,0.0,0.0,46,0.00,,---,0.00,VWS V15.00,2013-11-29 11:55:00,
2013-11-29 07:00:00,24.8,7.4,29.97,NNW,335,0.0,0.0,47,0.00,,---,0.00,VWS V15.00,2013-11-29 12:00:00,
2013-11-29 07:05:00,24.8,7.4,29.97,NNW,336,0.0,0.0,47,0.00,,---,0.00,VWS V15.00,2013-11-29 12:05:00,
2013-11-29 07:10:00,24.8,7.4,29.97,NNW,336,0.0,0.0,47,0.00,,---,0.00,VWS V15.00,2013-11-29 12:10:00,
2013-11-29 07:15:00,24.8,7.4,29.97,North,349,0.0,0.0,47,0.00,,---,0.00,VWS V15.00,2013-11-29 12:15:00,
2013-11-29 07:20:00,24.8,7.4,29.97,North,349,0.0,0.0,47,0.00,,---,0.00,VWS V15.00,2013-11-29 12:20:00,
2013-11-29 07:25:00,24.8,7.4,29.97,North,349,0.0,0.0,47,0.00,,---,0.00,VWS V15.00,2013-11-29 12:25:00,
2013-11-29 07:30:00,24.8,7.4,29.97,North,349,0.0,0.0,47,0.00,,---,0.00,VWS V15.00,2013-11-29 12:30:00,
2013-11-29 07:35:00,24.8,7.4,29.97,North,349,0.0,0.0,47,0.00,,---,0.00,VWS V15.00,2013-11-29 12:35:00,
2013-11-29 07:40:00,25.0,7.1,29.97,North,349,0.0,0.0,46,0.00,,---,0.00,VWS V15.00,2013-11-29 12:40:00,
2013-11-29 07:45:00,25.0,7.1,29.97,North,349,0.0,0.0,46,0.00,,---,0.00,VWS V15.00,2013-11-29 12:45:00,
2013-11-29 07:50:00,25.0,7.1,30.00,North,350,0.0,0.0,46,0.00,,---,0.00,VWS V15.00,2013-11-29 12:50:00,
2013-11-29 07:55:00,25.3,7.5,30.00,North,0,0.0,0.0,46,0.00,,---,0.00,VWS V15.00,2013-11-29 12:55:00,
2013-11-29 08:00:00,25.5,7.6,30.00,North,0,0.0,0.0,46,0.00,,---,0.00,VWS V15.00,2013-11-29 13:00:00,
2013-11-29 08:05:00,25.9,8.0,30.00,North,0,0.0,0.0,46,0.00,,---,0.00,VWS V15.00,2013-11-29 13:05:00,
2013-11-29 08:10:00,26.1,8.1,30.00,North,0,0.0,0.0,46,0.00,,---,0.00,VWS V15.00,2013-11-29 13:10:00,
2013-11-29 08:15:00,26.4,8.5,30.00,North,0,0.0,0.0,46,0.00,,---,0.00,VWS V15.00,2013-11-29 13:15:00,
2013-11-29 08:20:00,26.6,8.6,30.00,North,0,0.0,0.0,46,0.00,,---,0.00,VWS V15.00,2013-11-29 13:20:00,
2013-11-29 08:25:00,26.6,8.6,30.00,North,0,4.5,4.5,46,0.00,,---,0.00,VWS V15.00,2013-11-29 13:25:00,
2013-11-29 08:30:00,26.6,8.6,30.00,North,0,0.0,0.0,46,0.00,,---,0.00,VWS V15.00,2013-11-29 13:30:00,
2013-11-29 08:35:00,26.8,8.8,30.00,North,0,0.0,0.0,46,0.00,,---,0.00,VWS V15.00,2013-11-29 13:35:00,
2013-11-29 08:40:00,26.8,8.8,30.00,North,1,4.5,4.5,46,0.00,,---,0.00,VWS V15.00,2013-11-29 13:40:00,
2013-11-29 08:45:00,27.5,9.4,30.03,North,4,0.0,0.0,46,0.00,,---,0.00,VWS V15.00,2013-11-29 13:45:00,
2013-11-29 08:50:00,27.9,9.8,30.03,North,10,5.4,5.4,46,0.00,,---,0.00,VWS V15.00,2013-11-29 13:50:00,
2013-11-29 08:55:00,28.2,10.1,30.03,North,1,5.4,6.3,46,0.00,,---,0.00,VWS V15.00,2013-11-29 13:55:00,
2013-11-29 09:00:00,28.8,10.1,30.03,North,10,0.0,0.0,45,0.00,,---,0.00,VWS V15.00,2013-11-29 14:00:00,
2013-11-29 09:05:00,29.1,9.4,30.03,North,350,7.2,7.2,43,0.00,,---,0.00,VWS V15.00,2013-11-29 14:05:00,
2013-11-29 09:10:00,30.6,10.7,30.03,North,4,5.4,5.4,43,0.00,,---,0.00,VWS V15.00,2013-11-29 14:10:00,
2013-11-29 09:15:00,30.6,10.7,30.03,North,5,10.7,10.7,43,0.00,,---,0.00,VWS V15.00,2013-11-29 14:15:00,
2013-11-29 09:20:00,30.9,11.1,30.03,NNE,28,9.8,9.8,43,0.00,,---,0.00,VWS V15.00,2013-11-29 14:20:00,
2013-11-29 09:25:00,31.1,11.2,30.03,North,8,8.1,8.1,43,0.00,,---,0.00,VWS V15.00,2013-11-29 14:25:00,
2013-11-29 09:30:00,30.9,11.1,30.03,North,9,10.7,10.7,43,0.00,,---,0.00,VWS V15.00,2013-11-29 14:30:00,
2013-11-29 09:35:00,31.8,11.9,30.03,North,6,6.3,10.7,43,0.00,,---,0.00,VWS V15.00,2013-11-29 14:35:00,
2013-11-29 09:40:00,33.6,13.5,30.03,NNW,341,5.4,5.4,43,0.00,,---,0.00,VWS V15.00,2013-11-29 14:40:00,
2013-11-29 09:45:00,34.0,13.3,30.03,NNE,28,7.2,7.2,42,0.00,,---,0.00,VWS V15.00,2013-11-29 14:45:00,
2013-11-29 09:50:00,34.0,13.3,30.03,NNW,327,7.2,7.2,42,0.00,,---,0.00,VWS V15.00,2013-11-29 14:50:00,
2013-11-29 09:55:00,35.8,14.9,30.03,NNW,340,5.4,5.4,42,0.00,,---,0.00,VWS V15.00,2013-11-29 14:55:00,
2013-11-29 10:00:00,34.5,13.8,30.03,North,0,5.4,5.4,42,0.00,,---,0.00,VWS V15.00,2013-11-29 15:00:00,
2013-11-29 10:05:00,34.7,14.0,30.03,NW,304,7.2,7.2,42,0.00,,---,0.00,VWS V15.00,2013-11-29 15:05:00,
2013-11-29 10:10:00,35.8,14.9,30.03,North,353,7.2,7.2,42,0.00,,---,0.00,VWS V15.00,2013-11-29 15:10:00,
2013-11-29 10:15:00,38.1,16.5,30.03,NNE,28,7.2,7.2,41,0.00,,---,0.00,VWS V15.00,2013-11-29 15:15:00,
2013-11-29 10:20:00,36.9,15.9,30.03,NNW,338,6.3,6.3,42,0.00,,---,0.00,VWS V15.00,2013-11-29 15:20:00,
2013-11-29 10:25:00,37.6,16.0,30.03,NW,324,4.5,9.8,41,0.00,,---,0.00,VWS V15.00,2013-11-29 15:25:00,
2013-11-29 10:30:00,42.1,20.1,30.03,NNE,24,10.7,10.7,41,0.00,,---,0.00,VWS V15.00,2013-11-29 15:30:00,
2013-11-29 10:35:00,40.5,18.6,30.03,NE,34,8.1,8.1,41,0.00,,---,0.00,VWS V15.00,2013-11-29 15:35:00,
2013-11-29 10:40:00,40.6,18.8,30.03,North,0,9.8,9.8,41,0.00,,---,0.00,VWS V15.00,2013-11-29 15:40:00,
2013-11-29 10:45:00,39.9,18.1,30.03,North,357,9.8,9.8,41,0.00,,---,0.00,VWS V15.00,2013-11-29 15:45:00,
2013-11-29 10:50:00,37.6,16.0,30.03,North,0,10.7,10.7,41,0.00,,---,0.00,VWS V15.00,2013-11-29 15:50:00,
2013-11-29 10:55:00,40.1,18.3,30.03,NW,320,9.8,12.5,41,0.00,,---,0.00,VWS V15.00,2013-11-29 15:55:00,
2013-11-29 11:00:00,40.3,18.5,30.00,North,3,10.7,10.7,41,0.00,,---,0.00,VWS V15.00,2013-11-29 16:00:00,
2013-11-29 11:05:00,41.7,19.8,30.00,NNW,344,4.5,4.5,41,0.00,,---,0.00,VWS V15.00,2013-11-29 16:05:00,
2013-11-29 11:10:00,43.3,20.6,30.00,West,277,7.2,7.2,40,0.00,,---,0.00,VWS V15.00,2013-11-29 16:10:00,
2013-11-29 11:15:00,43.7,21.0,30.00,North,6,0.0,0.0,40,0.00,,---,0.00,VWS V15.00,2013-11-29 16:15:00,
2013-11-29 11:20:00,44.4,21.6,30.00,WNW,303,4.5,4.5,40,0.00,,---,0.00,VWS V15.00,2013-11-29 16:20:00,
2013-11-29 11:25:00,46.0,23.1,30.00,North,0,0.0,0.0,40,0.00,,---,0.00,VWS V15.00,2013-11-29 16:25:00,
2013-11-29 11:30:00,43.5,20.8,30.00,NNE,18,6.3,6.3,40,0.00,,---,0.00,VWS V15.00,2013-11-29 16:30:00,
2013-11-29 11:35:00,45.3,22.4,30.00,North,353,8.9,8.9,40,0.00,,---,0.00,VWS V15.00,2013-11-29 16:35:00,
2013-11-29 11:40:00,42.8,20.2,30.00,NNW,340,17.4,17.4,40,0.00,,---,0.00,VWS V15.00,2013-11-29 16:40:00,
2013-11-29 11:45:00,46.4,22.8,30.00,North,353,8.1,8.1,39,0.00,,---,0.00,VWS V15.00,2013-11-29 16:45:00,
2013-11-29 11:50:00,44.6,21.8,30.00,NNW,331,10.7,10.7,40,0.00,,---,0.00,VWS V15.00,2013-11-29 16:50:00,
2013-11-29 11:55:00,45.7,22.8,30.00,North,357,6.3,6.3,40,0.00,,---,0.00,VWS V15.00,2013-11-29 16:55:00,
2013-11-29 12:00:00,46.2,23.2,30.00,North,353,12.5,12.5,40,0.00,,---,0.00,VWS V15.00,2013-11-29 17:00:00,
2013-11-29 12:05:00,47.3,23.6,30.00,WNW,296,9.8,9.8,39,0.00,,---,0.00,VWS V15.00,2013-11-29 17:05:00,
2013-11-29 12:10:00,43.3,20.6,30.00,NW,307,12.5,12.5,40,0.00,,---,0.00,VWS V15.00,2013-11-29 17:10:00,
2013-11-29 12:15:00,45.3,22.4,30.00,North,6,11.6,11.6,40,0.00,,---,0.00,VWS V15.00,2013-11-29 17:15:00,
2013-11-29 12:20:00,46.8,23.1,30.00,North,357,0.0,0.0,39,0.00,,---,0.00,VWS V15.00,2013-11-29 17:20:00,
2013-11-29 12:25:00,46.2,23.2,30.00,North,10,0.0,0.0,40,0.00,,---,0.00,VWS V15.00,2013-11-29 17:25:00,
2013-11-29 12:30:00,41.9,19.9,30.00,SW,232,7.2,7.2,41,0.00,,---,0.00,VWS V15.00,2013-11-29 17:30:00,
2013-11-29 12:35:00,38.1,16.5,30.00,NNW,329,5.4,5.4,41,0.00,,---,0.00,VWS V15.00,2013-11-29 17:35:00,
2013-11-29 12:40:00,37.9,16.4,30.00,North,2,11.6,11.6,41,0.00,,---,0.00,VWS V15.00,2013-11-29 17:40:00,
2013-11-29 12:45:00,37.9,16.4,30.00,NNW,331,11.6,11.6,41,0.00,,---,0.00,VWS V15.00,2013-11-29 17:45:00,
2013-11-29 12:50:00,37.0,16.1,30.00,WNW,298,5.4,6.3,42,0.00,,---,0.00,VWS V15.00,2013-11-29 17:50:00,
2013-11-29 12:55:00,36.7,15.8,30.00,NW,317,5.4,5.4,42,0.00,,---,0.00,VWS V15.00,2013-11-29 17:55:00,
2013-11-29 13:00:00,37.0,16.1,30.00,NNW,335,6.3,6.3,42,0.00,,---,0.00,VWS V15.00,2013-11-29 18:00:00,
2013-11-29 13:05:00,36.9,15.9,30.00,West,278,7.2,7.2,42,0.00,,---,0.00,VWS V15.00,2013-11-29 18:05:00,
2013-11-29 13:10:00,37.0,16.1,30.00,NNE,29,0.0,0.0,42,0.00,,---,0.00,VWS V15.00,2013-11-29 18:10:00,
2013-11-29 13:15:00,36.9,15.9,30.00,North,0,6.3,6.3,42,0.00,,---,0.00,VWS V15.00,2013-11-29 18:15:00,
2013-11-29 13:20:00,38.8,17.2,30.00,NNW,328,8.1,8.1,41,0.00,,---,0.00,VWS V15.00,2013-11-29 18:20:00,
2013-11-29 13:25:00,37.0,16.1,30.00,NNW,327,8.1,8.1,42,0.00,,---,0.00,VWS V15.00,2013-11-29 18:25:00,
2013-11-29 13:30:00,36.9,15.9,30.00,NNW,336,0.0,4.5,42,0.00,,---,0.00,VWS V15.00,2013-11-29 18:30:00,
2013-11-29 13:35:00,36.9,15.9,30.00,NW,324,0.0,0.0,42,0.00,,---,0.00,VWS V15.00,2013-11-29 18:35:00,
2013-11-29 13:40:00,37.0,16.1,30.00,NNE,18,10.7,10.7,42,0.00,,---,0.00,VWS V15.00,2013-11-29 18:40:00,
2013-11-29 13:45:00,37.0,16.1,30.00,North,0,7.2,7.2,42,0.00,,---,0.00,VWS V15.00,2013-11-29 18:45:00,
2013-11-29 13:50:00,36.1,15.3,30.00,NNW,339,9.8,9.8,42,0.00,,---,0.00,VWS V15.00,2013-11-29 18:50:00,
2013-11-29 13:55:00,35.8,14.9,30.00,North,6,12.5,12.5,42,0.00,,---,0.00,VWS V15.00,2013-11-29 18:55:00,
2013-11-29 14:00:00,35.1,14.3,30.00,NE,48,10.7,10.7,42,0.00,,---,0.00,VWS V15.00,2013-11-29 19:00:00,
2013-11-29 14:05:00,34.7,14.0,30.00,NW,318,5.4,15.2,42,0.00,,---,0.00,VWS V15.00,2013-11-29 19:05:00,
2013-11-29 14:10:00,34.3,13.6,30.00,NNW,331,6.3,6.3,42,0.00,,---,0.00,VWS V15.00,2013-11-29 19:10:00,
2013-11-29 14:15:00,34.0,13.3,30.00,NNW,342,6.3,6.3,42,0.00,,---,0.00,VWS V15.00,2013-11-29 19:15:00,
2013-11-29 14:20:00,33.8,13.1,30.00,NNW,344,5.4,6.3,42,0.00,,---,0.00,VWS V15.00,2013-11-29 19:20:00,
2013-11-29 14:25:00,33.8,13.1,30.00,NNW,341,0.0,12.5,42,0.00,,---,0.00,VWS V15.00,2013-11-29 19:25:00,
2013-11-29 14:30:00,33.6,13.5,30.00,NNW,338,5.4,5.4,43,0.00,,---,0.00,VWS V15.00,2013-11-29 19:30:00,
2013-11-29 14:35:00,33.6,13.5,30.00,North,357,8.1,8.1,43,0.00,,---,0.00,VWS V15.00,2013-11-29 19:35:00,
2013-11-29 14:40:00,33.6,13.5,30.00,North,3,11.6,11.6,43,0.00,,---,0.00,VWS V15.00,2013-11-29 19:40:00,
2013-11-29 14:45:00,33.6,13.5,30.00,North,350,12.5,12.5,43,0.00,,---,0.00,VWS V15.00,2013-11-29 19:45:00,
2013-11-29 14:50:00,33.1,13.0,30.03,NW,323,7.2,7.2,43,0.00,,---,0.00,VWS V15.00,2013-11-29 19:50:00,
2013-11-29 14:55:00,33.1,13.0,30.03,NW,311,5.4,9.8,43,0.00,,---,0.00,VWS V15.00,2013-11-29 19:55:00,
2013-11-29 15:00:00,33.1,13.0,30.03,NW,307,5.4,8.1,43,0.00,,---,0.00,VWS V15.00,2013-11-29 20:00:00,
2013-11-29 15:05:00,33.1,13.0,30.03,NNW,331,16.6,16.6,43,0.00,,---,0.00,VWS V15.00,2013-11-29 20:05:00,
2013-11-29 15:10:00,33.1,13.0,30.03,NW,307,8.1,8.1,43,0.00,,---,0.00,VWS V15.00,2013-11-29 20:10:00,
2013-11-29 15:15:00,32.7,12.7,30.03,West,279,6.3,6.3,43,0.00,,---,0.00,VWS V15.00,2013-11-29 20:15:00,
2013-11-29 15:20:00,32.5,12.5,30.03,NW,315,8.1,8.1,43,0.00,,---,0.00,VWS V15.00,2013-11-29 20:20:00,
2013-11-29 15:25:00,32.4,12.4,30.03,WNW,303,11.6,11.6,43,0.00,,---,0.00,VWS V15.00,2013-11-29 20:25:00,
2013-11-29 15:30:00,32.2,12.2,30.03,North,353,5.4,5.4,43,0.00,,---,0.00,VWS V15.00,2013-11-29 20:30:00,
2013-11-29 15:35:00,32.0,12.1,30.03,NNW,333,0.0,0.0,43,0.00,,---,0.00,VWS V15.00,2013-11-29 20:35:00,
2013-11-29 15:40:00,31.6,11.7,30.03,North,353,7.2,7.2,43,0.00,,---,0.00,VWS V15.00,2013-11-29 20:40:00,
2013-11-29 15:45:00,31.6,11.7,30.03,North,350,0.0,0.0,43,0.00,,---,0.00,VWS V15.00,2013-11-29 20:45:00,
2013-11-29 15:50:00,31.3,11.4,30.03,North,349,6.3,6.3,43,0.00,,---,0.00,VWS V15.00,2013-11-29 20:50:00,
2013-11-29 15:55:00,31.3,11.4,30.03,North,3,4.5,4.5,43,0.00,,---,0.00,VWS V15.00,2013-11-29 20:55:00,
2013-11-29 16:00:00,31.3,11.4,30.06,NNE,20,0.0,7.2,43,0.00,,---,0.00,VWS V15.00,2013-11-29 21:00:00,
2013-11-29 16:05:00,30.9,11.1,30.06,North,353,8.1,8.1,43,0.00,,---,0.00,VWS V15.00,2013-11-29 21:05:00,
2013-11-29 16:10:00,30.6,10.7,30.06,NNW,346,0.0,0.0,43,0.00,,---,0.00,VWS V15.00,2013-11-29 21:10:00,
2013-11-29 16:15:00,30.4,10.6,30.06,North,0,0.0,0.0,43,0.00,,---,0.00,VWS V15.00,2013-11-29 21:15:00,
2013-11-29 16:20:00,30.4,10.6,30.06,North,353,6.3,6.3,43,0.00,,---,0.00,VWS V15.00,2013-11-29 21:20:00,
2013-11-29 16:25:00,30.0,10.2,30.06,North,353,0.0,0.0,43,0.00,,---,0.00,VWS V15.00,2013-11-29 21:25:00,
2013-11-29 16:30:00,29.8,10.1,30.06,North,349,0.0,0.0,43,0.00,,---,0.00,VWS V15.00,2013-11-29 21:30:00,
2013-11-29 16:35:00,29.5,9.8,30.06,North,349,0.0,0.0,43,0.00,,---,0.00,VWS V15.00,2013-11-29 21:35:00,
2013-11-29 16:40:00,29.5,9.8,30.06,North,349,0.0,0.0,43,0.00,,---,0.00,VWS V15.00,2013-11-29 21:40:00,
2013-11-29 16:45:00,29.5,9.8,30.06,North,349,0.0,0.0,43,0.00,,---,0.00,VWS V15.00,2013-11-29 21:45:00,
2013-11-29 16:50:00,29.5,9.8,30.06,North,349,0.0,0.0,43,0.00,,---,0.00,VWS V15.00,2013-11-29 21:50:00,
2013-11-29 16:55:00,28.6,8.9,30.06,North,349,0.0,0.0,43,0.00,,---,0.00,VWS V15.00,2013-11-29 21:55:00,
2013-11-29 17:00:00,28.4,8.8,30.09,North,349,0.0,0.0,43,0.00,,---,0.00,VWS V15.00,2013-11-29 22:00:00,
2013-11-29 17:05:00,28.4,8.8,30.09,North,349,0.0,0.0,43,0.00,,---,0.00,VWS V15.00,2013-11-29 22:05:00,
2013-11-29 17:10:00,28.4,8.8,30.09,North,349,0.0,0.0,43,0.00,,---,0.00,VWS V15.00,2013-11-29 22:10:00,
2013-11-29 17:15:00,28.4,8.8,30.09,North,349,0.0,0.0,43,0.00,,---,0.00,VWS V15.00,2013-11-29 22:15:00,
2013-11-29 17:20:00,28.0,8.4,30.09,North,349,0.0,0.0,43,0.00,,---,0.00,VWS V15.00,2013-11-29 22:20:00,
2013-11-29 17:25:00,27.7,8.1,30.09,North,349,0.0,0.0,43,0.00,,---,0.00,VWS V15.00,2013-11-29 22:25:00,
2013-11-29 17:30:00,27.7,8.1,30.09,North,349,0.0,0.0,43,0.00,,---,0.00,VWS V15.00,2013-11-29 22:30:00,
2013-11-29 17:35:00,27.7,8.1,30.09,North,349,0.0,0.0,43,0.00,,---,0.00,VWS V15.00,2013-11-29 22:35:00,
2013-11-29 17:40:00,27.7,8.1,30.09,North,349,0.0,0.0,43,0.00,,---,0.00,VWS V15.00,2013-11-29 22:40:00,
2013-11-29 17:45:00,27.5,7.9,30.09,North,349,0.0,0.0,43,0.00,,---,0.00,VWS V15.00,2013-11-29 22:45:00,
2013-11-29 17:50:00,27.3,7.8,30.09,North,349,0.0,0.0,43,0.00,,---,0.00,VWS V15.00,2013-11-29 22:50:00,
2013-11-29 17:55:00,27.3,7.8,30.09,North,349,0.0,0.0,43,0.00,,---,0.00,VWS V15.00,2013-11-29 22:55:00,
2013-11-29 18:00:00,27.0,7.5,30.09,North,349,0.0,0.0,43,0.00,,---,0.00,VWS V15.00,2013-11-29 23:00:00,
2013-11-29 18:05:00,26.8,7.3,30.12,North,349,0.0,0.0,43,0.00,,---,0.00,VWS V15.00,2013-11-29 23:05:00,
2013-11-29 18:10:00,26.6,7.6,30.12,North,349,0.0,0.0,44,0.00,,---,0.00,VWS V15.00,2013-11-29 23:10:00,
2013-11-29 18:15:00,26.6,7.6,30.12,North,349,0.0,0.0,44,0.00,,---,0.00,VWS V15.00,2013-11-29 23:15:00,
2013-11-29 18:20:00,26.6,7.6,30.12,NNW,337,6.3,6.3,44,0.00,,---,0.00,VWS V15.00,2013-11-29 23:20:00,
2013-11-29 18:33:00,27.1,7.6,30.12,North,0,12.5,12.5,43,0.00,,---,0.00,VWS V15.00,2013-11-29 23:33:00,
2013-11-29 18:38:00,27.1,7.6,30.12,NNW,348,11.6,12.5,43,0.00,,---,0.00,VWS V15.00,2013-11-29 23:38:00,
2013-11-29 18:43:00,27.1,7.6,30.12,North,2,11.6,15.2,43,0.00,,---,0.00,VWS V15.00,2013-11-29 23:43:00,
2013-11-29 18:48:00,27.1,7.6,30.12,NNW,338,8.1,8.1,43,0.00,,---,0.00,VWS V15.00,2013-11-29 23:48:00,
2013-11-29 18:53:00,27.3,7.8,30.12,North,353,10.7,16.6,43,0.00,,---,0.00,VWS V15.00,2013-11-29 23:53:00,
2013-11-29 18:58:00,27.3,7.8,30.12,NW,321,15.2,16.6,43,0.00,,---,0.00,VWS V15.00,2013-11-29 23:58:00,
2013-11-29 19:03:00,27.3,7.8,30.12,North,6,12.5,12.5,43,0.00,,---,0.00,VWS V15.00,2013-11-30 00:03:00,
2013-11-29 19:08:00,27.5,7.9,30.12,NW,307,10.7,14.3,43,0.00,,---,0.00,VWS V15.00,2013-11-30 00:08:00,
2013-11-29 19:13:00,27.7,8.1,30.12,NW,308,7.2,7.2,43,0.00,,---,0.00,VWS V15.00,2013-11-30 00:13:00,
2013-11-29 19:18:00,27.7,8.1,30.12,NW,307,11.6,11.6,43,0.00,,---,0.00,VWS V15.00,2013-11-30 00:18:00,
2013-11-29 19:23:00,27.7,8.1,30.12,WNW,284,6.3,6.3,43,0.00,,---,0.00,VWS V15.00,2013-11-30 00:23:00,
2013-11-29 19:28:00,27.7,8.1,30.12,NNW,332,5.4,5.4,43,0.00,,---,0.00,VWS V15.00,2013-11-30 00:28:00,
2013-11-29 19:33:00,27.0,7.5,30.15,NNW,340,0.0,0.0,43,0.00,,---,0.00,VWS V15.00,2013-11-30 00:33:00,
2013-11-29 19:38:00,27.0,7.5,30.15,NNW,343,9.8,9.8,43,0.00,,---,0.00,VWS V15.00,2013-11-30 00:38:00,
2013-11-29 19:43:00,26.6,7.6,30.15,NNW,339,6.3,6.3,44,0.00,,---,0.00,VWS V15.00,2013-11-30 00:43:00,
2013-11-29 19:48:00,26.2,7.3,30.15,NNW,345,5.4,5.4,44,0.00,,---,0.00,VWS V15.00,2013-11-30 00:48:00,
2013-11-29 19:53:00,25.9,7.0,30.15,NNW,345,0.0,0.0,44,0.00,,---,0.00,VWS V15.00,2013-11-30 00:53:00,
2013-11-29 19:58:00,25.7,6.8,30.15,North,0,6.3,6.3,44,0.00,,---,0.00,VWS V15.00,2013-11-30 00:58:00,
2013-11-29 20:03:00,25.7,6.8,30.15,North,3,6.3,10.7,44,0.00,,---,0.00,VWS V15.00,2013-11-30 01:03:00,
2013-11-29 20:08:00,25.5,6.7,30.15,North,349,4.5,4.5,44,0.00,,---,0.00,VWS V15.00,2013-11-30 01:08:00,
2013-11-29 20:13:00,25.5,6.7,30.15,North,7,6.3,6.3,44,0.00,,---,0.00,VWS V15.00,2013-11-30 01:13:00,
2013-11-29 20:18:00,25.5,6.7,30.15,NNE,25,7.2,7.2,44,0.00,,---,0.00,VWS V15.00,2013-11-30 01:18:00,
2013-11-29 20:23:00,25.3,6.5,30.15,North,0,5.4,5.4,44,0.00,,---,0.00,VWS V15.00,2013-11-30 01:23:00,
2013-11-29 20:28:00,25.3,6.5,30.15,North,0,5.4,5.4,44,0.00,,---,0.00,VWS V15.00,2013-11-30 01:28:00,
2013-11-29 20:33:00,25.2,6.3,30.15,North,0,7.2,7.2,44,0.00,,---,0.00,VWS V15.00,2013-11-30 01:33:00,
2013-11-29 20:38:00,25.2,6.3,30.15,NNE,18,0.0,0.0,44,0.00,,---,0.00,VWS V15.00,2013-11-30 01:38:00,
2013-11-29 20:43:00,25.2,6.3,30.15,NNE,18,0.0,0.0,44,0.00,,---,0.00,VWS V15.00,2013-11-30 01:43:00,
2013-11-29 20:48:00,24.8,6.0,30.15,NNE,26,0.0,0.0,44,0.00,,---,0.00,VWS V15.00,2013-11-30 01:48:00,
2013-11-29 20:53:00,24.8,6.0,30.15,NNE,25,0.0,0.0,44,0.00,,---,0.00,VWS V15.00,2013-11-30 01:53:00,
2013-11-29 20:58:00,24.3,5.5,30.15,NNE,20,0.0,0.0,44,0.00,,---,0.00,VWS V15.00,2013-11-30 01:58:00,
2013-11-29 21:03:00,24.3,5.5,30.15,North,353,6.3,6.3,44,0.00,,---,0.00,VWS V15.00,2013-11-30 02:03:00,
2013-11-29 21:08:00,24.1,5.3,30.15,North,0,0.0,6.3,44,0.00,,---,0.00,VWS V15.00,2013-11-30 02:08:00,
2013-11-29 21:13:00,23.9,5.2,30.15,North,0,0.0,0.0,44,0.00,,---,0.00,VWS V15.00,2013-11-30 02:13:00,
2013-11-29 21:18:00,23.9,5.2,30.18,North,353,5.4,5.4,44,0.00,,---,0.00,VWS V15.00,2013-11-30 02:18:00,
2013-11-29 21:23:00,24.1,5.3,30.18,North,7,7.2,7.2,44,0.00,,---,0.00,VWS V15.00,2013-11-30 02:23:00,
2013-11-29 21:28:00,23.9,5.2,30.18,NNE,25,7.2,7.2,44,0.00,,---,0.00,VWS V15.00,2013-11-30 02:28:00,
2013-11-29 21:33:00,23.9,5.2,30.18,North,0,5.4,5.4,44,0.00,,---,0.00,VWS V15.00,2013-11-30 02:33:00,
2013-11-29 21:38:00,23.5,4.8,30.18,North,353,5.4,5.4,44,0.00,,---,0.00,VWS V15.00,2013-11-30 02:38:00,
2013-11-29 21:43:00,23.5,4.8,30.18,North,353,6.3,6.3,44,0.00,,---,0.00,VWS V15.00,2013-11-30 02:43:00,
2013-11-29 21:48:00,23.5,4.8,30.18,North,353,0.0,0.0,44,0.00,,---,0.00,VWS V15.00,2013-11-30 02:48:00,
2013-11-29 21:53:00,23.5,4.8,30.18,North,353,5.4,7.2,44,0.00,,---,0.00,VWS V15.00,2013-11-30 02:53:00,
2013-11-29 21:58:00,23.5,4.8,30.18,North,8,5.4,6.3,44,0.00,,---,0.00,VWS V15.00,2013-11-30 02:58:00,
2013-11-29 22:03:00,23.5,4.8,30.18,North,353,5.4,5.4,44,0.00,,---,0.00,VWS V15.00,2013-11-30 03:03:00,
2013-11-29 22:08:00,23.5,4.8,30.18,North,357,6.3,6.3,44,0.00,,---,0.00,VWS V15.00,2013-11-30 03:08:00,
2013-11-29 22:13:00,23.4,4.7,30.18,North,0,6.3,6.3,44,0.00,,---,0.00,VWS V15.00,2013-11-30 03:13:00,
2013-11-29 22:18:00,23.4,4.7,30.18,NNW,344,5.4,5.4,44,0.00,,---,0.00,VWS V15.00,2013-11-30 03:18:00,
2013-11-29 22:23:00,23.4,4.7,30.18,North,357,7.2,7.2,44,0.00,,---,0.00,VWS V15.00,2013-11-30 03:23:00,
2013-11-29 22:28:00,23.4,4.7,30.18,North,353,6.3,6.3,44,0.00,,---,0.00,VWS V15.00,2013-11-30 03:28:00,
2013-11-29 22:33:00,23.4,4.7,30.18,North,0,7.2,7.2,44,0.00,,---,0.00,VWS V15.00,2013-11-30 03:33:00,
2013-11-29 22:38:00,23.4,4.7,30.18,NNW,342,6.3,6.3,44,0.00,,---,0.00,VWS V15.00,2013-11-30 03:38:00,
2013-11-29 22:43:00,23.2,4.5,30.18,NNE,25,0.0,0.0,44,0.00,,---,0.00,VWS V15.00,2013-11-30 03:43:00,
2013-11-29 22:48:00,23.2,4.5,30.18,NNE,25,0.0,0.0,44,0.00,,---,0.00,VWS V15.00,2013-11-30 03:48:00,
2013-11-29 22:53:00,22.8,4.7,30.18,North,357,6.3,6.3,45,0.00,,---,0.00,VWS V15.00,2013-11-30 03:53:00,
2013-11-29 22:58:00,22.8,4.7,30.18,North,0,0.0,6.3,45,0.00,,---,0.00,VWS V15.00,2013-11-30 03:58:00,
2013-11-29 23:03:00,22.5,4.3,30.21,North,0,0.0,0.0,45,0.00,,---,0.00,VWS V15.00,2013-11-30 04:03:00,
2013-11-29 23:08:00,22.5,4.3,30.21,North,0,0.0,0.0,45,0.00,,---,0.00,VWS V15.00,2013-11-30 04:08:00,
2013-11-29 23:13:00,22.1,5.0,30.21,North,0,0.0,0.0,47,0.00,,---,0.00,VWS V15.00,2013-11-30 04:13:00,
2013-11-29 23:18:00,21.9,4.8,30.21,North,0,0.0,0.0,47,0.00,,---,0.00,VWS V15.00,2013-11-30 04:18:00,
2013-11-29 23:23:00,21.9,4.8,30.21,North,0,0.0,0.0,47,0.00,,---,0.00,VWS V15.00,2013-11-30 04:23:00,
2013-11-29 23:28:00,21.6,4.5,30.21,North,0,0.0,0.0,47,0.00,,---,0.00,VWS V15.00,2013-11-30 04:28:00,
2013-11-29 23:33:00,21.4,4.3,30.21,North,0,0.0,0.0,47,0.00,,---,0.00,VWS V15.00,2013-11-30 04:33:00,
2013-11-29 23:38:00,21.2,4.1,30.21,North,0,0.0,0.0,47,0.00,,---,0.00,VWS V15.00,2013-11-30 04:38:00,
2013-11-29 23:43:00,21.2,4.1,30.21,North,0,0.0,0.0,47,0.00,,---,0.00,VWS V15.00,2013-11-30 04:43:00,
2013-11-29 23:48:00,20.8,3.8,30.21,North,0,0.0,0.0,47,0.00,,---,0.00,VWS V15.00,2013-11-30 04:48:00,
2013-11-29 23:53:00,20.8,3.8,30.21,North,0,0.0,0.0,47,0.00,,---,0.00,VWS V15.00,2013-11-30 04:53:00,
2013-11-29 23:58:00,20.8,3.8,30.21,North,0,0.0,0.0,47,0.00,,---,0.00,VWS V15.00,2013-11-30 04:58:00,